createdAt,value
2022-11-28T00:01:38.852Z,1.30
2022-11-28T00:04:09.268Z,1.30
2022-11-28T00:06:39.183Z,1.30
2022-11-28T00:09:09.429Z,1.30
2022-11-28T00:11:37.471Z,1.30
2022-11-28T00:14:05.950Z,1.20
2022-11-28T00:16:34.142Z,1.30
2022-11-28T00:19:03.527Z,1.20
2022-11-28T00:21:33.130Z,1.30
2022-11-28T00:24:02.375Z,1.30
2022-11-28T00:26:32.684Z,1.30
2022-11-28T00:29:01.240Z,1.30
2022-11-28T00:31:32.002Z,1.30
2022-11-28T00:34:01.848Z,1.30
2022-11-28T00:36:32.061Z,1.30
2022-11-28T00:39:00.516Z,1.30
2022-11-28T00:41:31.039Z,1.20
2022-11-28T00:43:59.300Z,1.20
2022-11-28T00:46:27.969Z,1.30
2022-11-28T00:48:56.110Z,1.30
2022-11-28T00:51:27.160Z,1.30
2022-11-28T00:53:58.098Z,1.30
2022-11-28T00:56:28.783Z,1.30
2022-11-28T00:58:57.176Z,1.30
2022-11-28T01:01:27.499Z,1.30
2022-11-28T01:03:58.769Z,1.30
2022-11-28T01:06:29.205Z,1.30
2022-11-28T01:09:00.667Z,1.40
2022-11-28T01:11:29.330Z,1.30
2022-11-28T01:13:58.269Z,1.30
2022-11-28T01:16:26.384Z,1.30
2022-11-28T01:18:54.800Z,1.30
2022-11-28T01:21:23.200Z,1.30
2022-11-28T01:23:52.138Z,1.30
2022-11-28T01:26:23.546Z,1.20
2022-11-28T01:28:51.982Z,1.20
2022-11-28T01:31:22.090Z,1.20
2022-11-28T01:33:51.053Z,1.30
2022-11-28T01:36:20.997Z,1.30
2022-11-28T01:38:49.817Z,1.20
2022-11-28T01:41:22.755Z,1.20
2022-11-28T01:44:07.913Z,1.20
2022-11-28T01:46:37.468Z,1.20
2022-11-28T01:49:10.792Z,1.20
2022-11-28T01:51:41.663Z,1.20
2022-11-28T01:54:09.773Z,1.10
2022-11-28T01:56:44.809Z,1.20
2022-11-28T01:59:16.111Z,1.20
2022-11-28T02:01:45.078Z,1.10
2022-11-28T02:04:14.828Z,1.20
2022-11-28T02:06:43.529Z,1.10
2022-11-28T02:09:13.958Z,1.10
2022-11-28T02:12:02.633Z,1.10
2022-11-28T02:14:51.079Z,1.10
2022-11-28T02:17:31.632Z,1.00
2022-11-28T02:20:39.203Z,1.10
2022-11-28T02:23:13.620Z,1.10
2022-11-28T02:26:17.145Z,1.10
2022-11-28T02:29:04.469Z,1.10
2022-11-28T02:32:02.781Z,1.10
2022-11-28T02:34:37.029Z,1.10
2022-11-28T02:37:09.864Z,1.20
2022-11-28T02:39:47.214Z,1.20
2022-11-28T02:42:21.959Z,1.20
2022-11-28T02:45:00.006Z,1.20
2022-11-28T02:47:33.305Z,1.20
2022-11-28T02:50:10.037Z,1.20
2022-11-28T02:52:43.254Z,1.20
2022-11-28T02:55:11.942Z,1.30
2022-11-28T02:57:41.906Z,1.30
2022-11-28T03:00:29.993Z,1.30
2022-11-28T03:03:26.411Z,1.30
2022-11-28T03:06:01.422Z,1.30
2022-11-28T03:08:41.296Z,1.20
2022-11-28T03:11:16.586Z,1.30
2022-11-28T03:13:58.693Z,1.30
2022-11-28T03:16:31.007Z,1.30
2022-11-28T03:19:06.576Z,1.30
2022-11-28T03:21:41.366Z,1.30
2022-11-28T03:24:17.316Z,1.20
2022-11-28T03:26:53.615Z,1.30
2022-11-28T03:29:26.912Z,1.20
2022-11-28T03:31:58.127Z,1.20
2022-11-28T03:34:31.830Z,1.20
2022-11-28T03:37:04.292Z,1.20
2022-11-28T03:39:39.011Z,1.20
2022-11-28T03:42:11.293Z,1.10
2022-11-28T03:44:47.997Z,1.20
2022-11-28T03:47:16.372Z,1.10
2022-11-28T03:49:48.911Z,1.20
2022-11-28T03:52:26.461Z,1.20
2022-11-28T03:54:58.328Z,1.20
2022-11-28T03:57:34.275Z,1.20
2022-11-28T04:00:07.262Z,1.30
2022-11-28T04:02:39.971Z,1.20
2022-11-28T04:05:18.626Z,1.20
2022-11-28T04:07:53.888Z,1.20
2022-11-28T04:10:28.714Z,1.20
2022-11-28T04:13:02.598Z,1.20
2022-11-28T04:15:38.939Z,1.20
2022-11-28T04:18:16.420Z,1.20
2022-11-28T04:20:50.749Z,1.20
2022-11-28T04:23:22.856Z,1.20
2022-11-28T04:25:55.541Z,1.10
2022-11-28T04:28:26.794Z,1.10
2022-11-28T04:30:57.603Z,1.00
2022-11-28T04:33:27.968Z,1.10
2022-11-28T04:35:58.476Z,1.00
2022-11-28T04:38:30.338Z,1.00
2022-11-28T04:41:04.186Z,1.00
2022-11-28T04:43:36.026Z,1.00
2022-11-28T04:46:11.647Z,1.00
2022-11-28T04:48:39.745Z,1.00
2022-11-28T04:51:19.147Z,1.00
2022-11-28T04:53:55.412Z,1.10
2022-11-28T04:56:29.560Z,1.00
2022-11-28T04:59:04.454Z,1.10
2022-11-28T05:01:33.673Z,1.00
2022-11-28T05:04:04.334Z,1.10
2022-11-28T05:06:34.844Z,1.10
2022-11-28T05:09:04.992Z,1.00
2022-11-28T05:11:33.268Z,1.00
2022-11-28T05:14:01.380Z,1.00
2022-11-28T05:16:29.609Z,1.10
2022-11-28T05:18:58.066Z,1.10
2022-11-28T05:21:26.194Z,1.10
2022-11-28T05:23:54.203Z,1.10
2022-11-28T05:26:23.872Z,1.20
2022-11-28T05:28:52.903Z,1.20
2022-11-28T05:31:22.780Z,1.20
2022-11-28T05:33:50.964Z,1.20
2022-11-28T05:36:19.343Z,1.20
2022-11-28T05:38:47.596Z,1.10
2022-11-28T05:41:21.046Z,1.10
2022-11-28T05:43:51.054Z,1.20
2022-11-28T05:46:19.968Z,1.20
2022-11-28T05:48:48.048Z,1.20
2022-11-28T05:51:16.301Z,1.20
2022-11-28T05:53:44.377Z,1.20
2022-11-28T05:56:14.782Z,1.20
2022-11-28T05:58:42.958Z,1.20
2022-11-28T06:01:16.935Z,1.20
2022-11-28T06:03:45.622Z,1.20
2022-11-28T06:06:15.011Z,1.20
2022-11-28T06:08:43.761Z,1.20
2022-11-28T06:11:12.503Z,1.20
2022-11-28T06:13:40.516Z,1.20
2022-11-28T06:16:09.931Z,1.20
2022-11-28T06:18:40.301Z,1.20
2022-11-28T06:21:09.893Z,1.20
2022-11-28T06:23:38.498Z,1.20
2022-11-28T06:26:08.099Z,1.30
2022-11-28T06:28:36.648Z,1.20
2022-11-28T06:31:05.431Z,1.20
2022-11-28T06:33:33.527Z,1.20
2022-11-28T06:36:04.143Z,1.20
2022-11-28T06:38:33.117Z,1.20
2022-11-28T06:41:02.385Z,1.20
2022-11-28T06:43:31.432Z,1.20
2022-11-28T06:45:59.799Z,1.20
2022-11-28T06:48:28.314Z,1.20
2022-11-28T06:51:02.494Z,1.20
2022-11-28T06:53:32.080Z,1.20
2022-11-28T06:56:04.900Z,1.20
2022-11-28T06:58:32.962Z,1.20
2022-11-28T07:01:07.490Z,1.20
2022-11-28T07:03:36.335Z,1.20
2022-11-28T07:06:05.587Z,1.20
2022-11-28T07:08:35.907Z,1.20
2022-11-28T07:11:12.606Z,1.20
2022-11-28T07:13:42.373Z,1.30
2022-11-28T07:16:15.596Z,1.30
2022-11-28T07:18:43.858Z,1.40
2022-11-28T07:21:12.198Z,1.40
2022-11-28T07:23:42.182Z,1.30
2022-11-28T07:26:11.344Z,1.30
2022-11-28T07:28:39.356Z,1.40
2022-11-28T07:31:10.745Z,1.40
2022-11-28T07:33:39.888Z,1.40
2022-11-28T07:36:12.858Z,1.40
2022-11-28T07:38:42.353Z,1.40
2022-11-28T07:41:12.793Z,1.40
2022-11-28T07:43:42.894Z,1.40
2022-11-28T07:46:14.815Z,1.50
2022-11-28T07:48:43.352Z,1.50
2022-11-28T07:51:12.937Z,1.50
2022-11-28T07:53:43.416Z,2.60
2022-11-28T07:56:15.093Z,2.10
2022-11-28T07:58:44.675Z,2.00
2022-11-28T08:01:14.951Z,1.90
2022-11-28T08:03:44.656Z,2.00
2022-11-28T08:06:13.642Z,2.00
2022-11-28T08:08:44.021Z,2.00
2022-11-28T08:11:12.647Z,1.90
2022-11-28T08:13:41.306Z,2.00
2022-11-28T08:16:11.271Z,1.90
2022-11-28T08:18:39.496Z,1.90
2022-11-28T08:21:10.113Z,1.90
2022-11-28T08:23:39.299Z,1.90
2022-11-28T08:26:11.306Z,1.80
2022-11-28T08:28:39.348Z,1.90
2022-11-28T08:31:11.935Z,1.90
2022-11-28T08:33:40.747Z,2.00
2022-11-28T08:36:09.583Z,2.00
2022-11-28T08:38:38.440Z,2.00
2022-11-28T08:41:09.365Z,2.10
2022-11-28T08:43:39.037Z,2.20
2022-11-28T08:46:08.324Z,2.20
2022-11-28T08:48:36.568Z,2.30
2022-11-28T08:51:05.270Z,2.40
2022-11-28T08:53:33.753Z,2.40
2022-11-28T08:56:02.239Z,2.50
2022-11-28T08:58:31.616Z,2.50
2022-11-28T09:00:59.699Z,2.60
2022-11-28T09:03:27.758Z,2.60
2022-11-28T09:06:02.302Z,2.70
2022-11-28T09:08:30.350Z,2.90
2022-11-28T09:10:58.368Z,4.20
2022-11-28T09:13:26.434Z,3.60
2022-11-28T09:15:56.157Z,3.20
2022-11-28T09:18:24.614Z,3.10
2022-11-28T09:20:58.892Z,3.10
2022-11-28T09:23:27.271Z,3.20
2022-11-28T09:25:55.336Z,3.30
2022-11-28T09:28:23.612Z,4.80
2022-11-28T09:30:52.027Z,4.50
2022-11-28T09:33:21.644Z,4.90
2022-11-28T09:35:49.830Z,4.90
2022-11-28T09:38:33.539Z,4.50
2022-11-28T09:41:03.471Z,4.40
2022-11-28T09:43:36.168Z,4.40
2022-11-28T09:46:07.216Z,4.10
2022-11-28T09:48:39.412Z,4.30
2022-11-28T09:51:20.044Z,4.30
2022-11-28T09:53:58.537Z,4.30
2022-11-28T09:56:26.596Z,4.20
2022-11-28T09:58:58.890Z,4.10
2022-11-28T10:01:33.391Z,4.00
2022-11-28T10:04:07.403Z,4.00
2022-11-28T10:06:41.610Z,4.10
2022-11-28T10:09:23.763Z,4.20
2022-11-28T10:12:06.732Z,4.20
2022-11-28T10:14:57.175Z,4.20
2022-11-28T10:17:35.638Z,4.10
2022-11-28T10:20:12.225Z,4.20
2022-11-28T10:22:50.732Z,4.50
2022-11-28T10:25:21.325Z,4.70
2022-11-28T10:27:50.675Z,4.70
2022-11-28T10:30:23.647Z,4.70
2022-11-28T10:33:03.159Z,4.60
2022-11-28T10:35:41.294Z,4.40
2022-11-28T10:38:12.954Z,4.30
2022-11-28T10:40:49.198Z,4.40
2022-11-28T10:43:31.103Z,4.40
2022-11-28T10:46:17.220Z,4.40
2022-11-28T10:48:53.472Z,4.40
2022-11-28T10:51:34.169Z,4.40
2022-11-28T10:54:20.773Z,4.40
2022-11-28T10:56:56.643Z,4.40
2022-11-28T10:59:37.205Z,4.50
2022-11-28T11:02:22.684Z,4.70
2022-11-28T11:04:52.118Z,4.90
2022-11-28T11:07:29.723Z,4.70
2022-11-28T11:10:01.594Z,4.70
2022-11-28T11:12:32.776Z,4.70
2022-11-28T11:15:15.857Z,4.80
2022-11-28T11:17:44.029Z,4.90
2022-11-28T11:20:29.453Z,4.90
2022-11-28T11:23:01.225Z,5.00
2022-11-28T11:25:33.359Z,5.00
2022-11-28T11:28:04.558Z,4.90
2022-11-28T11:30:35.961Z,5.10
2022-11-28T11:33:07.140Z,5.20
2022-11-28T11:35:37.828Z,5.10
2022-11-28T11:38:32.342Z,5.20
2022-11-28T11:41:27.933Z,5.30
2022-11-28T11:43:56.587Z,5.30
2022-11-28T11:46:24.939Z,5.40
2022-11-28T11:48:54.466Z,5.40
2022-11-28T11:51:25.380Z,5.40
2022-11-28T11:54:06.133Z,5.40
2022-11-28T11:56:38.766Z,5.50
2022-11-28T11:59:13.199Z,5.50
2022-11-28T12:01:43.151Z,5.40
2022-11-28T12:04:43.934Z,5.40
2022-11-28T12:07:11.011Z,5.40
2022-11-28T12:09:45.454Z,5.30
2022-11-28T12:12:18.906Z,5.30
2022-11-28T12:14:49.167Z,5.40
2022-11-28T12:20:44.169Z,5.60
2022-11-28T12:23:29.344Z,5.50
2022-11-28T12:26:05.884Z,5.70
2022-11-28T12:28:46.347Z,5.70
2022-11-28T12:31:25.170Z,5.70
2022-11-28T12:34:04.922Z,5.50
2022-11-28T12:36:37.833Z,5.40
2022-11-28T12:39:17.821Z,5.40
2022-11-28T12:42:10.378Z,5.40
2022-11-28T12:44:59.972Z,5.40
2022-11-28T12:47:41.444Z,5.50
2022-11-28T12:50:22.164Z,5.50
2022-11-28T12:52:57.837Z,5.30
2022-11-28T12:55:34.470Z,5.30
2022-11-28T12:58:12.287Z,5.40
2022-11-28T13:00:51.368Z,5.30
2022-11-28T13:03:41.037Z,5.50
2022-11-28T13:06:22.393Z,5.40
2022-11-28T13:09:06.512Z,5.30
2022-11-28T13:11:55.334Z,5.30
2022-11-28T13:14:34.605Z,5.30
2022-11-28T13:17:15.608Z,5.50
2022-11-28T13:19:52.851Z,5.50
2022-11-28T13:22:26.031Z,5.40
2022-11-28T13:25:01.645Z,5.40
2022-11-28T13:27:38.860Z,5.30
2022-11-28T13:30:22.178Z,5.30
2022-11-28T13:32:56.075Z,5.20
2022-11-28T13:35:24.718Z,6.90
2022-11-28T13:40:50.482Z,6.40
2022-11-28T13:43:25.761Z,6.00
2022-11-28T13:45:56.089Z,5.80
2022-11-28T13:51:41.759Z,5.70
2022-11-28T13:54:40.138Z,5.60
2022-11-28T13:57:28.217Z,5.50
2022-11-28T14:00:04.539Z,5.50
2022-11-28T14:02:45.761Z,5.40
2022-11-28T14:05:29.954Z,5.30
2022-11-28T14:07:59.021Z,5.30
2022-11-28T14:10:56.580Z,5.30
2022-11-28T14:13:49.936Z,5.30
2022-11-28T14:16:28.537Z,5.30
2022-11-28T14:19:10.953Z,5.30
2022-11-28T14:21:50.103Z,5.20
2022-11-28T14:24:28.376Z,5.20
2022-11-28T14:27:03.775Z,5.20
2022-11-28T14:29:36.262Z,5.20
2022-11-28T14:34:55.296Z,5.20
2022-11-28T14:37:55.685Z,5.10
2022-11-28T14:41:05.428Z,5.20
2022-11-28T14:43:35.734Z,5.10
2022-11-28T14:46:28.339Z,5.10
2022-11-28T14:49:23.780Z,5.00
2022-11-28T14:52:38.545Z,5.00
2022-11-28T14:55:18.799Z,5.00
2022-11-28T14:57:58.736Z,5.00
2022-11-28T15:00:30.032Z,5.00
2022-11-28T15:03:21.121Z,5.10
2022-11-28T15:05:53.168Z,5.00
2022-11-28T15:08:39.666Z,5.00
2022-11-28T15:11:23.114Z,5.00
2022-11-28T15:14:10.006Z,5.00
2022-11-28T15:16:46.631Z,4.90
2022-11-28T15:19:24.438Z,4.90
2022-11-28T15:21:57.545Z,4.90
2022-11-28T15:24:30.911Z,4.80
2022-11-28T15:27:17.903Z,4.80
2022-11-28T15:29:55.280Z,4.80
2022-11-28T15:32:24.908Z,4.80
2022-11-28T15:34:55.979Z,4.70
2022-11-28T15:37:27.305Z,4.70
2022-11-28T15:39:57.694Z,4.60
2022-11-28T15:42:30.551Z,4.70
2022-11-28T15:45:01.215Z,4.60
2022-11-28T15:47:29.808Z,4.60
2022-11-28T15:50:03.655Z,4.50
2022-11-28T15:52:32.470Z,4.40
2022-11-28T15:55:02.066Z,4.40
2022-11-28T15:57:32.613Z,4.50
2022-11-28T16:00:03.038Z,4.50
2022-11-28T16:02:35.703Z,4.50
2022-11-28T16:05:09.302Z,4.50
2022-11-28T16:07:42.429Z,4.50
2022-11-28T16:10:23.648Z,4.40
2022-11-28T16:12:55.470Z,4.30
2022-11-28T16:15:25.874Z,4.20
2022-11-28T16:17:55.592Z,4.20
2022-11-28T16:20:26.718Z,4.20
2022-11-28T16:23:00.919Z,4.20
2022-11-28T16:25:32.656Z,4.20
2022-11-28T16:28:01.114Z,4.10
2022-11-28T16:30:34.835Z,4.10
2022-11-28T16:33:03.303Z,4.00
2022-11-28T16:35:34.551Z,4.00
2022-11-28T16:38:06.809Z,3.90
2022-11-28T16:40:36.416Z,4.00
2022-11-28T16:43:06.380Z,3.90
2022-11-28T16:45:35.152Z,3.90
2022-11-28T16:48:08.824Z,3.80
2022-11-28T16:50:37.966Z,3.80
2022-11-28T16:53:06.896Z,3.80
2022-11-28T16:55:46.309Z,3.80
2022-11-28T16:58:23.655Z,3.80
2022-11-28T17:01:03.556Z,3.80
2022-11-28T17:03:49.923Z,3.80
2022-11-28T17:06:24.872Z,3.80
2022-11-28T17:08:53.177Z,3.80
2022-11-28T17:11:25.116Z,3.80
2022-11-28T17:13:57.225Z,3.90
2022-11-28T17:16:27.053Z,3.80
2022-11-28T17:18:55.271Z,3.80
2022-11-28T17:21:33.056Z,3.80
2022-11-28T17:24:01.685Z,3.70
2022-11-28T17:26:31.582Z,3.80
2022-11-28T17:28:59.916Z,3.70
2022-11-28T17:31:28.089Z,3.70
2022-11-28T17:33:56.181Z,3.60
2022-11-28T17:36:25.033Z,3.60
2022-11-28T17:38:53.172Z,3.60
2022-11-28T17:41:23.278Z,3.50
2022-11-28T17:43:52.810Z,3.60
2022-11-28T17:46:21.541Z,3.50
2022-11-28T17:48:50.055Z,3.50
2022-11-28T17:51:18.192Z,3.50
2022-11-28T17:53:46.259Z,3.50
2022-11-28T17:56:14.716Z,3.50
2022-11-28T17:58:42.857Z,3.50
2022-11-28T18:01:14.689Z,3.50
2022-11-28T18:03:42.824Z,3.50
2022-11-28T18:06:17.437Z,3.40
2022-11-28T18:08:46.337Z,3.50
2022-11-28T18:11:16.295Z,3.50
2022-11-28T18:13:44.798Z,3.50
2022-11-28T18:16:16.256Z,3.50
2022-11-28T18:18:44.489Z,3.50
2022-11-28T18:21:13.172Z,3.50
2022-11-28T18:23:43.016Z,3.50
2022-11-28T18:26:13.510Z,3.50
2022-11-28T18:28:42.406Z,3.50
2022-11-28T18:31:11.830Z,3.50
2022-11-28T18:33:41.978Z,3.50
2022-11-28T18:36:12.066Z,3.50
2022-11-28T18:38:40.683Z,3.50
2022-11-28T18:41:10.539Z,3.50
2022-11-28T18:43:39.191Z,3.50
2022-11-28T18:46:08.991Z,3.50
2022-11-28T18:48:39.685Z,3.60
2022-11-28T18:51:14.207Z,3.60
2022-11-28T18:53:43.015Z,3.70
2022-11-28T18:56:12.374Z,3.70
2022-11-28T18:58:43.114Z,3.60
2022-11-28T19:01:12.680Z,3.70
2022-11-28T19:03:41.583Z,3.70
2022-11-28T19:06:12.944Z,3.70
2022-11-28T19:08:41.493Z,3.70
2022-11-28T19:14:06.771Z,3.60
2022-11-28T19:16:37.494Z,3.70
2022-11-28T19:19:07.257Z,3.70
2022-11-28T19:21:37.525Z,3.80
2022-11-28T19:24:08.325Z,3.70
2022-11-28T19:26:38.124Z,3.60
2022-11-28T19:29:07.498Z,3.60
2022-11-28T19:31:38.154Z,3.60
2022-11-28T19:34:07.641Z,3.60
2022-11-28T19:36:41.315Z,3.60
2022-11-28T19:39:13.885Z,3.60
2022-11-28T19:41:42.079Z,3.50
2022-11-28T19:44:11.475Z,3.50
2022-11-28T19:46:39.754Z,3.50
2022-11-28T19:49:12.424Z,3.60
2022-11-28T19:51:47.551Z,3.50
2022-11-28T19:54:15.987Z,3.50
2022-11-28T19:56:47.362Z,3.60
2022-11-28T19:59:16.305Z,3.50
2022-11-28T20:01:45.515Z,3.50
2022-11-28T20:04:20.313Z,3.50
2022-11-28T20:06:55.974Z,3.50
2022-11-28T20:09:27.865Z,3.50
2022-11-28T20:11:55.991Z,3.60
2022-11-28T20:14:24.156Z,3.60
2022-11-28T20:16:52.446Z,3.50
2022-11-28T20:19:20.784Z,3.60
2022-11-28T20:21:50.837Z,3.60
2022-11-28T20:24:19.135Z,3.60
2022-11-28T20:26:47.645Z,3.60
2022-11-28T20:29:17.681Z,3.60
2022-11-28T20:31:48.359Z,3.60
2022-11-28T20:34:18.946Z,3.60
2022-11-28T20:36:51.360Z,3.50
2022-11-28T20:39:21.052Z,3.60
2022-11-28T20:41:49.220Z,3.60
2022-11-28T20:44:17.782Z,3.50
2022-11-28T20:46:49.843Z,3.50
2022-11-28T20:49:18.878Z,3.50
2022-11-28T20:51:47.449Z,3.50
2022-11-28T20:54:15.662Z,3.40
2022-11-28T20:59:39.621Z,3.40
2022-11-28T21:02:07.913Z,3.40
2022-11-28T21:04:36.092Z,3.50
2022-11-28T21:07:04.232Z,3.50
2022-11-28T21:09:32.363Z,3.50
2022-11-28T21:12:02.142Z,3.50
2022-11-28T21:14:30.483Z,3.50
2022-11-28T21:16:59.629Z,3.50
2022-11-28T21:19:27.810Z,3.40
2022-11-28T21:21:56.049Z,3.40
2022-11-28T21:24:24.672Z,3.40
2022-11-28T21:26:54.687Z,3.40
2022-11-28T21:29:25.376Z,3.40
2022-11-28T21:31:54.550Z,3.40
2022-11-28T21:34:22.938Z,3.40
2022-11-28T21:36:51.997Z,3.40
2022-11-28T21:39:22.056Z,3.30
2022-11-28T21:41:52.081Z,3.40
2022-11-28T21:44:20.656Z,3.40
2022-11-28T21:46:50.295Z,3.40
2022-11-28T21:49:19.799Z,3.40
2022-11-28T21:51:48.046Z,3.50
2022-11-28T21:54:16.403Z,3.40
2022-11-28T21:56:44.796Z,3.40
2022-11-28T21:59:12.859Z,3.40
2022-11-28T22:01:41.495Z,3.30
2022-11-28T22:04:11.838Z,3.30
2022-11-28T22:06:40.113Z,3.30
2022-11-28T22:09:09.827Z,3.30
2022-11-28T22:11:39.294Z,3.30
2022-11-28T22:14:08.108Z,3.30
2022-11-28T22:16:36.517Z,3.30
2022-11-28T22:19:05.112Z,3.30
2022-11-28T22:21:52.107Z,3.30
2022-11-28T22:24:23.008Z,3.30
2022-11-28T22:26:51.640Z,3.40
2022-11-28T22:29:20.109Z,3.40
2022-11-28T22:31:48.683Z,3.30
2022-11-28T22:34:17.135Z,3.40
2022-11-28T22:36:49.983Z,3.30
2022-11-28T22:39:18.211Z,3.40
2022-11-28T22:41:47.743Z,3.40
2022-11-28T22:44:16.298Z,3.30
2022-11-28T22:46:44.847Z,3.30
2022-11-28T22:49:14.385Z,3.20
2022-11-28T22:51:42.913Z,3.20
2022-11-28T22:54:13.891Z,3.20
2022-11-28T22:56:43.097Z,3.20
2022-11-28T22:59:14.146Z,3.20
2022-11-28T23:01:43.878Z,3.10
2022-11-28T23:04:12.426Z,3.10
2022-11-28T23:06:40.984Z,3.10
2022-11-28T23:09:10.788Z,3.00
2022-11-28T23:11:42.344Z,3.00
2022-11-28T23:14:14.489Z,3.00
2022-11-28T23:16:43.993Z,2.90
2022-11-28T23:19:15.243Z,3.00
2022-11-28T23:21:45.856Z,3.00
2022-11-28T23:24:16.393Z,3.00
2022-11-28T23:26:46.103Z,3.10
2022-11-28T23:29:14.581Z,3.00
2022-11-28T23:31:46.375Z,3.00
2022-11-28T23:34:15.095Z,3.10
2022-11-28T23:36:45.477Z,3.00
2022-11-28T23:39:16.006Z,3.00
2022-11-28T23:41:46.412Z,3.10
2022-11-28T23:44:16.029Z,3.10
2022-11-28T23:46:44.925Z,3.00
2022-11-28T23:49:13.918Z,3.10
2022-11-28T23:51:42.250Z,3.00
2022-11-28T23:54:11.799Z,3.00
2022-11-28T23:56:41.326Z,3.00
2022-11-28T23:59:13.307Z,3.10
